KCYS

Cheyenne Regional / Jerry Olson Field Airport

Cheyenne, Wyoming, USA
METAR KCYS 211453Z 23009KT 10SM CLR 00/M07 A2954 RMK AO2 SLP008 T00001072 58015
Observed Flight Rules
Jan-21 @ 14:53 UTC (an hour ago) Visual Flight Rules
Wind Visibility Clouds
230° at 9 knots 10 miles
  • Clear skies
Temperatures Readings
Current 0°C / 32°F
Dewpoint -7°C / 19°F
Humidity 60%
Altimeter 29.54" Hg
Pressure 1000.8 hPa
Elevation 1868
METAR KCYS 211453Z 23009KT 10SM CLR 00/M07 A2954 RMK AO2 SLP008 T00001072 58015
Observed Flight Rules
Jan-21 @ 14:53 UTC
(an hour ago)
VFR
Wind Visibility
230° at 9 knots 10 miles
Clouds
  • Clear skies
Temperature Dewpoint
0°C / 32°F -7°C / 19°F
Humidity Altimeter Pressure
60% 29.54" Hg 1000.8 hPa